Time;durP1;ratioP1;P1;durP2;ratioP2;P2;SDS_P1;SDS_P2;PMS_P1;PMS_P2;Temp;Humidity;BMP_temperature;BMP_pressure;BME280_temperature;BME280_humidity;BME280_pressure;Samples;Min_cycle;Max_cycle;Signal;HPM_P1;HPM_P2
2023/01/17 00:01:04;;;;;;;5.20;0.90;;;;;;;;;;6306043;22;20024;-81
2023/01/17 00:03:31;;;;;;;6.88;0.80;;;;;;;;;;6305294;22;20035;-82
2023/01/17 00:11:27;;;;;;;3.15;0.57;;;;;;;;;;6304204;22;20077;-81
2023/01/17 00:13:54;;;;;;;5.90;0.68;;;;;;;;;;6305462;22;20023;-81
2023/01/17 00:16:20;;;;;;;5.43;0.65;;;;;;;;;;6304642;22;20016;-81
2023/01/17 00:26:01;;;;;;;4.32;0.90;;;;;;;;;;6305322;22;20028;-81
2023/01/17 01:33:50;;;;;;;3.05;0.30;;;;;;;;;;6304946;22;20054;-81
2023/01/17 01:36:16;;;;;;;2.88;0.40;;;;;;;;;;6305045;22;20023;-81
2023/01/17 01:38:43;;;;;;;0.70;0.20;;;;;;;;;;6304812;22;20412;-81
2023/01/17 01:41:09;;;;;;;5.57;0.45;;;;;;;;;;6305101;22;20055;-81
2023/01/17 01:43:42;;;;;;;2.80;0.40;;;;;;;;;;6276474;22;20472;-82
2023/01/17 01:46:09;;;;;;;1.50;0.30;;;;;;;;;;6304261;22;20027;-81
2023/01/17 01:48:41;;;;;;;1.58;0.40;;;;;;;;;;6303742;22;20027;-80
2023/01/17 01:51:09;;;;;;;2.20;0.40;;;;;;;;;;6304886;22;20024;-81
2023/01/17 01:53:39;;;;;;;7.32;1.08;;;;;;;;;;6303948;22;20071;-81
2023/01/17 01:56:07;;;;;;;2.42;0.60;;;;;;;;;;6304266;22;20081;-80
2023/01/17 01:58:37;;;;;;;3.35;0.52;;;;;;;;;;6303860;22;20035;-81
2023/01/17 02:01:05;;;;;;;2.42;0.32;;;;;;;;;;6304764;22;20023;-82
2023/01/17 02:03:32;;;;;;;3.90;0.30;;;;;;;;;;6304861;22;20082;-82
2023/01/17 02:06:14;;;;;;;0.85;0.25;;;;;;;;;;6305102;22;20103;-80
2023/01/17 02:08:41;;;;;;;1.42;0.20;;;;;;;;;;6304351;22;20423;-82
2023/01/17 02:11:08;;;;;;;2.08;0.30;;;;;;;;;;6304696;22;20517;-82
2023/01/17 02:13:34;;;;;;;1.85;0.35;;;;;;;;;;6305789;22;20468;-81
2023/01/17 02:16:07;;;;;;;0.52;0.20;;;;;;;;;;6305305;22;20111;-81
2023/01/17 02:18:52;;;;;;;3.13;0.38;;;;;;;;;;6278669;22;20024;-82
2023/01/17 02:21:21;;;;;;;2.75;0.30;;;;;;;;;;6308117;22;20034;-81
2023/01/17 02:23:56;;;;;;;2.70;0.20;;;;;;;;;;6306954;22;20027;-81
2023/01/17 02:26:42;;;;;;;1.17;0.52;;;;;;;;;;6306205;22;20059;-80
2023/01/17 02:29:11;;;;;;;1.58;0.52;;;;;;;;;;6306684;22;20059;-81
2023/01/17 02:31:52;;;;;;;1.35;0.40;;;;;;;;;;6308010;22;20063;-81
2023/01/17 02:34:23;;;;;;;4.93;0.63;;;;;;;;;;6305946;22;20411;-80
2023/01/17 02:37:02;;;;;;;3.85;0.60;;;;;;;;;;6305681;22;20022;-82
2023/01/17 02:39:31;;;;;;;5.95;0.60;;;;;;;;;;6305053;22;21141;-81
2023/01/17 02:42:01;;;;;;;2.78;0.40;;;;;;;;;;6306822;22;20047;-81
2023/01/17 02:44:28;;;;;;;2.17;0.52;;;;;;;;;;6305750;22;20064;-80
2023/01/17 02:46:55;;;;;;;2.60;0.50;;;;;;;;;;6305469;22;20024;-81
2023/01/17 02:49:24;;;;;;;6.40;0.80;;;;;;;;;;6305463;22;20027;-81
2023/01/17 02:52:06;;;;;;;4.38;0.73;;;;;;;;;;6305441;22;20669;-82
2023/01/17 02:54:41;;;;;;;6.38;0.80;;;;;;;;;;6279041;22;20024;-80
2023/01/17 02:57:13;;;;;;;3.90;0.70;;;;;;;;;;6307110;22;20878;-81
2023/01/17 02:59:47;;;;;;;4.22;0.80;;;;;;;;;;6278718;22;20025;-81
2023/01/17 03:02:23;;;;;;;4.50;0.60;;;;;;;;;;6304093;22;20058;-81
2023/01/17 03:04:59;;;;;;;2.15;0.57;;;;;;;;;;6307483;22;20028;-81
2023/01/17 03:07:27;;;;;;;6.05;0.57;;;;;;;;;;6306932;22;20023;-82
2023/01/17 03:09:58;;;;;;;5.43;0.70;;;;;;;;;;6305713;22;20024;-81
2023/01/17 03:12:42;;;;;;;5.15;0.80;;;;;;;;;;6278950;22;20031;-82
2023/01/17 03:15:13;;;;;;;6.18;0.80;;;;;;;;;;6306211;22;20042;-81
2023/01/17 03:17:47;;;;;;;7.30;0.90;;;;;;;;;;6279299;22;20015;-81
2023/01/17 03:20:13;;;;;;;6.72;0.77;;;;;;;;;;6306552;22;20042;-81
2023/01/17 03:22:40;;;;;;;5.07;0.82;;;;;;;;;;6305514;22;20023;-82
2023/01/17 03:25:06;;;;;;;4.50;0.70;;;;;;;;;;6306269;22;20027;-82
2023/01/17 03:27:32;;;;;;;7.10;1.40;;;;;;;;;;6278513;22;20469;-82
2023/01/17 03:29:59;;;;;;;5.85;0.90;;;;;;;;;;6305752;22;20098;-82
2023/01/17 03:32:25;;;;;;;5.80;0.90;;;;;;;;;;6305192;22;20032;-82
2023/01/17 03:34:52;;;;;;;4.00;0.60;;;;;;;;;;6305667;22;20110;-81
2023/01/17 03:37:18;;;;;;;4.40;0.70;;;;;;;;;;6278350;22;20119;-82
2023/01/17 03:39:44;;;;;;;5.57;0.70;;;;;;;;;;6305738;22;20012;-81
2023/01/17 03:42:11;;;;;;;2.47;0.70;;;;;;;;;;6278968;22;20031;-81
2023/01/17 03:44:37;;;;;;;7.15;0.70;;;;;;;;;;6306503;22;20023;-81
2023/01/17 03:47:03;;;;;;;2.55;0.43;;;;;;;;;;6305092;22;20308;-81
2023/01/17 03:49:30;;;;;;;3.45;0.70;;;;;;;;;;6306009;22;20023;-82
2023/01/17 03:51:57;;;;;;;8.48;0.50;;;;;;;;;;6306512;22;20034;-82
2023/01/17 03:54:23;;;;;;;2.85;0.63;;;;;;;;;;6306128;22;20028;-81
2023/01/17 03:56:49;;;;;;;3.33;0.70;;;;;;;;;;6304944;22;20443;-81
2023/01/17 03:59:16;;;;;;;3.22;0.70;;;;;;;;;;6302407;22;20176;-81
2023/01/17 04:01:42;;;;;;;3.10;0.60;;;;;;;;;;6277559;22;20023;-82
2023/01/17 04:04:08;;;;;;;9.68;1.05;;;;;;;;;;6306880;22;20472;-82
2023/01/17 04:06:35;;;;;;;9.07;0.70;;;;;;;;;;6306321;22;20012;-82
2023/01/17 04:09:01;;;;;;;9.75;1.33;;;;;;;;;;6305911;22;20365;-83
2023/01/17 04:11:28;;;;;;;3.72;0.82;;;;;;;;;;6279012;22;20119;-83
2023/01/17 04:13:54;;;;;;;7.28;0.88;;;;;;;;;;6305617;22;20095;-82
2023/01/17 04:16:24;;;;;;;2.42;0.80;;;;;;;;;;6306516;22;20024;-82
2023/01/17 04:18:50;;;;;;;3.97;0.60;;;;;;;;;;6305645;22;21174;-82
2023/01/17 04:21:16;;;;;;;2.55;0.80;;;;;;;;;;6306052;22;20039;-82
2023/01/17 04:23:43;;;;;;;3.88;0.60;;;;;;;;;;6305936;22;20028;-82
2023/01/17 04:26:10;;;;;;;4.55;0.95;;;;;;;;;;6305742;22;20034;-82
2023/01/17 04:28:37;;;;;;;6.20;0.90;;;;;;;;;;6305543;22;20020;-81
2023/01/17 04:31:03;;;;;;;5.85;0.60;;;;;;;;;;6307523;22;20097;-82
2023/01/17 04:33:30;;;;;;;4.55;0.70;;;;;;;;;;6305333;22;20082;-83
2023/01/17 04:35:56;;;;;;;2.58;0.60;;;;;;;;;;6278202;22;20031;-82
2023/01/17 04:38:23;;;;;;;1.42;0.40;;;;;;;;;;6305397;22;20496;-82
2023/01/17 04:40:49;;;;;;;1.23;0.50;;;;;;;;;;6306313;22;20027;-82
2023/01/17 04:43:16;;;;;;;4.03;0.60;;;;;;;;;;6278210;22;20023;-82
2023/01/17 04:45:42;;;;;;;5.72;0.60;;;;;;;;;;6305370;22;20626;-83
2023/01/17 04:48:11;;;;;;;5.18;0.80;;;;;;;;;;6305612;22;20026;-82
2023/01/17 04:50:38;;;;;;;3.65;0.73;;;;;;;;;;6305639;22;20015;-83
2023/01/17 04:53:04;;;;;;;1.98;0.60;;;;;;;;;;6306837;22;20491;-82
2023/01/17 04:55:30;;;;;;;6.93;0.80;;;;;;;;;;6305379;22;20233;-82
2023/01/17 04:58:00;;;;;;;5.75;0.88;;;;;;;;;;6302034;22;20055;-83
2023/01/17 05:00:26;;;;;;;9.63;0.95;;;;;;;;;;6305028;22;20023;-83
2023/01/17 05:02:53;;;;;;;6.10;0.85;;;;;;;;;;6305061;22;20369;-83
2023/01/17 05:05:19;;;;;;;3.90;0.90;;;;;;;;;;6276816;22;20028;-82
2023/01/17 05:07:52;;;;;;;4.88;1.10;;;;;;;;;;6303625;22;20550;-83
2023/01/17 05:10:19;;;;;;;10.85;1.33;;;;;;;;;;6303862;22;20796;-82
2023/01/17 05:12:53;;;;;;;3.40;0.90;;;;;;;;;;6276830;22;20106;-82
2023/01/17 05:15:19;;;;;;;6.07;1.20;;;;;;;;;;6304198;22;20047;-82
2023/01/17 05:17:45;;;;;;;2.67;0.70;;;;;;;;;;6303667;22;20102;-82
2023/01/17 05:20:12;;;;;;;4.40;1.20;;;;;;;;;;6303226;22;20027;-83
2023/01/17 05:22:38;;;;;;;4.93;1.17;;;;;;;;;;6304191;22;20818;-83
2023/01/17 05:25:05;;;;;;;4.80;1.25;;;;;;;;;;6302673;22;20039;-82
2023/01/17 05:27:31;;;;;;;4.90;1.35;;;;;;;;;;6303168;22;20031;-83
2023/01/17 05:29:57;;;;;;;5.28;1.00;;;;;;;;;;6303209;22;20028;-84
2023/01/17 05:32:24;;;;;;;3.67;1.05;;;;;;;;;;6303573;22;20113;-83
2023/01/17 05:34:50;;;;;;;9.50;1.50;;;;;;;;;;6302941;22;20027;-84
2023/01/17 05:37:16;;;;;;;5.93;1.23;;;;;;;;;;6275507;22;20023;-83
2023/01/17 05:39:43;;;;;;;3.15;1.13;;;;;;;;;;6302973;22;20028;-83
2023/01/17 05:42:09;;;;;;;7.35;1.33;;;;;;;;;;6275326;22;20023;-83
2023/01/17 05:44:37;;;;;;;6.65;1.20;;;;;;;;;;6302727;22;20051;-83
2023/01/17 05:47:03;;;;;;;6.40;1.58;;;;;;;;;;6301966;22;20028;-83
2023/01/17 05:49:30;;;;;;;8.27;1.67;;;;;;;;;;6303605;22;20497;-83
2023/01/17 05:51:56;;;;;;;6.75;1.92;;;;;;;;;;6302873;22;20024;-83
2023/01/17 05:54:23;;;;;;;4.90;1.90;;;;;;;;;;6276684;22;20028;-87
2023/01/17 05:56:51;;;;;;;5.00;1.65;;;;;;;;;;6305957;22;20042;-84
2023/01/17 05:59:18;;;;;;;11.63;2.10;;;;;;;;;;6302542;22;20660;-84
2023/01/17 06:02:01;;;;;;;7.55;2.20;;;;;;;;;;6304953;22;20028;-84
2023/01/17 06:04:28;;;;;;;9.75;2.50;;;;;;;;;;6304604;22;20051;-84
2023/01/17 06:06:54;;;;;;;12.25;2.95;;;;;;;;;;6275544;22;20476;-84
2023/01/17 06:09:21;;;;;;;8.77;2.15;;;;;;;;;;6304346;22;20023;-84
2023/01/17 06:11:47;;;;;;;11.18;2.60;;;;;;;;;;6305459;22;20031;-84
2023/01/17 06:14:13;;;;;;;5.60;2.03;;;;;;;;;;6305237;22;20063;-83
2023/01/17 06:16:40;;;;;;;8.63;2.45;;;;;;;;;;6303870;22;20102;-83
2023/01/17 06:19:08;;;;;;;7.95;2.70;;;;;;;;;;6275751;22;20024;-84
2023/01/17 06:21:34;;;;;;;13.68;2.58;;;;;;;;;;6304454;22;20030;-83
2023/01/17 06:24:00;;;;;;;8.32;2.33;;;;;;;;;;6304347;22;20038;-83
2023/01/17 06:26:29;;;;;;;13.65;2.47;;;;;;;;;;6304142;22;20027;-83
2023/01/17 06:28:55;;;;;;;12.07;2.30;;;;;;;;;;6303996;22;20083;-83
2023/01/17 06:31:22;;;;;;;8.07;2.42;;;;;;;;;;6274786;22;20031;-83
2023/01/17 06:33:48;;;;;;;10.10;2.50;;;;;;;;;;6303461;22;20373;-83
2023/01/17 06:36:15;;;;;;;12.25;2.65;;;;;;;;;;6277036;22;20030;-84
2023/01/17 06:38:41;;;;;;;9.73;2.65;;;;;;;;;;6303016;22;20024;-85
2023/01/17 06:41:08;;;;;;;13.30;4.03;;;;;;;;;;6304511;22;20607;-83
2023/01/17 06:43:34;;;;;;;13.50;3.72;;;;;;;;;;6275182;22;20035;-83
2023/01/17 06:46:01;;;;;;;7.30;3.08;;;;;;;;;;6304253;22;20023;-83
2023/01/17 06:48:27;;;;;;;9.13;3.28;;;;;;;;;;6304270;22;20107;-83
2023/01/17 06:50:55;;;;;;;7.65;3.20;;;;;;;;;;6303024;22;20511;-82
2023/01/17 06:53:22;;;;;;;9.77;3.92;;;;;;;;;;6303718;22;20050;-85
2023/01/17 06:55:48;;;;;;;8.60;3.10;;;;;;;;;;6302265;22;20058;-82
2023/01/17 06:58:14;;;;;;;12.70;3.85;;;;;;;;;;6305387;22;20576;-83
2023/01/17 07:00:41;;;;;;;10.05;3.90;;;;;;;;;;6304644;22;20455;-82
2023/01/17 07:03:37;;;;;;;12.25;4.03;;;;;;;;;;6305451;22;20032;-83
2023/01/17 07:06:04;;;;;;;6.70;2.83;;;;;;;;;;6290167;22;20035;-83
2023/01/17 07:08:30;;;;;;;6.70;2.95;;;;;;;;;;6304553;22;20023;-83
2023/01/17 07:11:04;;;;;;;7.88;2.97;;;;;;;;;;6304489;22;20031;-83
2023/01/17 07:13:34;;;;;;;7.57;2.80;;;;;;;;;;6304655;22;20024;-83
2023/01/17 07:16:04;;;;;;;8.50;2.80;;;;;;;;;;6277553;22;20016;-82
2023/01/17 07:18:31;;;;;;;10.75;3.13;;;;;;;;;;6303894;22;20035;-83
2023/01/17 07:20:57;;;;;;;8.02;2.90;;;;;;;;;;6303781;22;20452;-83
2023/01/17 07:23:23;;;;;;;8.23;3.30;;;;;;;;;;6303945;22;20886;-83
2023/01/17 07:25:51;;;;;;;11.95;3.20;;;;;;;;;;6303850;22;20568;-84
2023/01/17 07:28:20;;;;;;;10.65;3.05;;;;;;;;;;6303154;22;20115;-83
2023/01/17 07:30:47;;;;;;;9.32;2.85;;;;;;;;;;6304018;22;20024;-83
2023/01/17 07:33:13;;;;;;;8.23;3.05;;;;;;;;;;6304549;22;20023;-83
2023/01/17 07:35:40;;;;;;;7.45;3.08;;;;;;;;;;6303626;22;20031;-83
2023/01/17 07:38:10;;;;;;;6.07;2.67;;;;;;;;;;6303740;22;20074;-84
2023/01/17 07:40:37;;;;;;;11.68;3.00;;;;;;;;;;6304002;22;20502;-84
2023/01/17 07:43:12;;;;;;;12.70;2.90;;;;;;;;;;6304026;22;20019;-83
2023/01/17 07:45:42;;;;;;;8.00;2.65;;;;;;;;;;6303899;22;20953;-83
2023/01/17 07:48:08;;;;;;;9.45;2.80;;;;;;;;;;6277553;22;20109;-83
2023/01/17 07:50:35;;;;;;;10.02;3.20;;;;;;;;;;6303687;22;20032;-84
2023/01/17 07:53:02;;;;;;;9.70;2.92;;;;;;;;;;6304134;22;20024;-83
2023/01/17 07:55:28;;;;;;;9.85;2.78;;;;;;;;;;6276057;22;20019;-83
2023/01/17 07:57:54;;;;;;;11.07;2.75;;;;;;;;;;6303635;22;20015;-82
2023/01/17 08:00:22;;;;;;;9.85;2.40;;;;;;;;;;6302981;22;21020;-83
2023/01/17 08:02:48;;;;;;;12.35;2.72;;;;;;;;;;6303847;22;20106;-83
2023/01/17 08:05:15;;;;;;;10.05;3.00;;;;;;;;;;6302452;22;20543;-83
2023/01/17 08:07:41;;;;;;;14.35;3.35;;;;;;;;;;6303841;22;20074;-82
2023/01/17 08:10:11;;;;;;;10.32;2.60;;;;;;;;;;6304885;22;20024;-82
2023/01/17 08:12:38;;;;;;;9.00;2.38;;;;;;;;;;6304069;22;20024;-83
2023/01/17 08:15:05;;;;;;;7.53;2.30;;;;;;;;;;6304479;22;20455;-83
2023/01/17 08:17:31;;;;;;;10.80;2.67;;;;;;;;;;6303663;22;20058;-83
2023/01/17 08:19:58;;;;;;;13.23;3.00;;;;;;;;;;6303608;22;20055;-83
2023/01/17 08:22:24;;;;;;;12.65;2.30;;;;;;;;;;6276713;22;20496;-83
2023/01/17 08:24:50;;;;;;;11.02;2.50;;;;;;;;;;6304106;22;20038;-83
2023/01/17 08:27:17;;;;;;;6.97;2.60;;;;;;;;;;6276383;22;20118;-83
2023/01/17 08:29:46;;;;;;;10.25;2.75;;;;;;;;;;6304710;22;20024;-83
2023/01/17 08:32:12;;;;;;;11.75;2.08;;;;;;;;;;6304349;22;20737;-83
2023/01/17 08:34:38;;;;;;;7.35;1.92;;;;;;;;;;6303960;22;20067;-83
2023/01/17 08:37:05;;;;;;;11.40;2.00;;;;;;;;;;6304485;22;20055;-83
2023/01/17 08:39:32;;;;;;;10.43;2.75;;;;;;;;;;6303921;22;20059;-83
2023/01/17 08:41:58;;;;;;;8.13;2.55;;;;;;;;;;6277038;22;20416;-83
2023/01/17 08:44:24;;;;;;;10.93;3.28;;;;;;;;;;6304227;22;20534;-83
2023/01/17 08:46:51;;;;;;;11.35;2.78;;;;;;;;;;6304471;22;20062;-82
2023/01/17 08:49:17;;;;;;;12.85;2.35;;;;;;;;;;6304296;22;20130;-83
2023/01/17 08:51:43;;;;;;;9.18;2.95;;;;;;;;;;6304782;22;20139;-83
2023/01/17 08:54:11;;;;;;;11.07;2.67;;;;;;;;;;6302430;22;20058;-84
2023/01/17 08:56:38;;;;;;;15.35;2.85;;;;;;;;;;6304665;22;20028;-85
2023/01/17 08:59:04;;;;;;;9.88;2.60;;;;;;;;;;6303788;22;20035;-83
2023/01/17 09:01:39;;;;;;;6.25;1.90;;;;;;;;;;6304320;22;20507;-82
2023/01/17 09:04:07;;;;;;;9.43;4.05;;;;;;;;;;6303764;22;20485;-84
2023/01/17 09:06:41;;;;;;;6.00;2.70;;;;;;;;;;6303982;22;20099;-83
2023/01/17 09:09:10;;;;;;;8.77;3.03;;;;;;;;;;6304010;22;20155;-82
2023/01/17 09:11:37;;;;;;;11.75;2.75;;;;;;;;;;6277030;22;20059;-83
2023/01/17 09:14:03;;;;;;;7.25;2.50;;;;;;;;;;6305148;22;20054;-82
2023/01/17 09:16:30;;;;;;;8.73;3.00;;;;;;;;;;6304526;22;20039;-83
2023/01/17 09:18:57;;;;;;;13.77;3.85;;;;;;;;;;6276938;22;20152;-83
2023/01/17 09:21:25;;;;;;;9.50;3.42;;;;;;;;;;6303766;22;20027;-83
2023/01/17 09:23:58;;;;;;;7.95;2.72;;;;;;;;;;6303486;22;20020;-84
2023/01/17 09:26:29;;;;;;;16.90;3.80;;;;;;;;;;6304021;22;20027;-84
2023/01/17 09:28:57;;;;;;;12.10;3.42;;;;;;;;;;6276106;22;20043;-82
2023/01/17 09:31:25;;;;;;;8.32;3.50;;;;;;;;;;6276708;22;20115;-82
2023/01/17 09:33:53;;;;;;;11.88;3.95;;;;;;;;;;6276972;22;20062;-83
2023/01/17 09:36:20;;;;;;;13.45;5.57;;;;;;;;;;6304229;22;20477;-83
2023/01/17 09:38:47;;;;;;;14.20;5.75;;;;;;;;;;6276724;22;20027;-83
2023/01/17 09:41:22;;;;;;;12.43;5.40;;;;;;;;;;6304518;22;20016;-83
2023/01/17 09:44:07;;;;;;;13.13;4.68;;;;;;;;;;6304649;22;20027;-83
2023/01/17 09:46:40;;;;;;;17.50;5.00;;;;;;;;;;6277044;22;20103;-82
2023/01/17 09:49:08;;;;;;;15.82;4.95;;;;;;;;;;6303507;22;20020;-84
2023/01/17 09:51:35;;;;;;;11.55;4.68;;;;;;;;;;6302248;22;20099;-84
2023/01/17 09:54:01;;;;;;;14.27;5.90;;;;;;;;;;6303247;22;20028;-83
2023/01/17 09:56:30;;;;;;;10.30;5.85;;;;;;;;;;6302884;22;20023;-83
2023/01/17 09:59:00;;;;;;;14.95;5.57;;;;;;;;;;6302738;22;20031;-83
2023/01/17 10:01:42;;;;;;;16.33;5.47;;;;;;;;;;6303318;22;20031;-85
2023/01/17 10:04:27;;;;;;;11.40;5.60;;;;;;;;;;6302925;22;20032;-83
2023/01/17 10:06:54;;;;;;;14.32;6.45;;;;;;;;;;6275773;22;20494;-84
2023/01/17 10:09:20;;;;;;;12.73;5.60;;;;;;;;;;6302572;22;20086;-84
2023/01/17 10:12:05;;;;;;;14.98;6.97;;;;;;;;;;6303035;22;20028;-84
2023/01/17 10:14:37;;;;;;;16.27;6.40;;;;;;;;;;6275560;22;20030;-84
2023/01/17 10:17:04;;;;;;;14.45;6.20;;;;;;;;;;6275449;22;20074;-83
2023/01/17 10:19:42;;;;;;;13.27;6.28;;;;;;;;;;6302303;22;20039;-84
2023/01/17 10:22:29;;;;;;;15.38;6.10;;;;;;;;;;6303035;22;20557;-85
2023/01/17 10:25:02;;;;;;;16.90;6.65;;;;;;;;;;6275433;22;20034;-84
2023/01/17 10:27:48;;;;;;;14.07;6.25;;;;;;;;;;6275122;22;20028;-85
2023/01/17 10:30:35;;;;;;;11.98;5.80;;;;;;;;;;6302550;22;20514;-84
2023/01/17 10:33:05;;;;;;;14.27;6.32;;;;;;;;;;6301964;22;20822;-85
2023/01/17 10:35:35;;;;;;;16.20;6.35;;;;;;;;;;6301993;22;20030;-84
2023/01/17 10:38:04;;;;;;;12.57;6.80;;;;;;;;;;6301841;22;20027;-83
2023/01/17 10:40:37;;;;;;;13.10;6.32;;;;;;;;;;6302200;22;20451;-84
2023/01/17 10:43:22;;;;;;;14.15;6.07;;;;;;;;;;6304721;22;20027;-85
2023/01/17 10:45:55;;;;;;;13.52;6.95;;;;;;;;;;6303923;22;20028;-83
2023/01/17 10:48:38;;;;;;;15.75;6.95;;;;;;;;;;6303323;22;20023;-85
2023/01/17 10:51:16;;;;;;;14.40;6.50;;;;;;;;;;6303223;22;20024;-84
2023/01/17 10:53:43;;;;;;;13.98;5.93;;;;;;;;;;6275987;22;20048;-84
2023/01/17 10:56:13;;;;;;;11.45;6.63;;;;;;;;;;6303257;22;20020;-83
2023/01/17 10:58:39;;;;;;;13.55;6.15;;;;;;;;;;6303420;22;20103;-84
2023/01/17 11:01:16;;;;;;;12.45;5.80;;;;;;;;;;6303861;22;20113;-85
2023/01/17 11:03:47;;;;;;;14.02;6.07;;;;;;;;;;6303697;22;20023;-84
2023/01/17 11:06:18;;;;;;;13.63;5.85;;;;;;;;;;6277416;22;20036;-83
2023/01/17 11:08:44;;;;;;;;;;;;;;;;;;6303825;22;20900;-83
2023/01/17 11:11:11;;;;;;;10.52;5.07;;;;;;;;;;6302330;22;47914;-83
2023/01/17 11:13:37;;;;;;;14.00;5.63;;;;;;;;;;6303000;22;20476;-83
2023/01/17 11:16:04;;;;;;;13.15;5.47;;;;;;;;;;6276462;22;20967;-84
2023/01/17 11:18:33;;;;;;;12.60;4.95;;;;;;;;;;6303186;22;20407;-84
2023/01/17 11:21:16;;;;;;;12.60;5.57;;;;;;;;;;6276379;22;20027;-83
2023/01/17 11:23:44;;;;;;;12.75;5.22;;;;;;;;;;6304303;22;20058;-83
2023/01/17 11:26:19;;;;;;;10.98;5.03;;;;;;;;;;6302791;22;20445;-84
2023/01/17 11:28:45;;;;;;;9.30;4.80;;;;;;;;;;6305215;22;20019;-84
2023/01/17 11:31:15;;;;;;;11.35;5.07;;;;;;;;;;6277108;22;20107;-84
2023/01/17 11:33:45;;;;;;;15.88;5.40;;;;;;;;;;6276034;22;20031;-84
2023/01/17 11:36:23;;;;;;;10.60;5.03;;;;;;;;;;6303149;22;20028;-83
2023/01/17 11:39:03;;;;;;;11.15;5.03;;;;;;;;;;6302120;22;20099;-83
2023/01/17 11:41:37;;;;;;;10.52;5.22;;;;;;;;;;6301919;22;20028;-84
2023/01/17 11:44:22;;;;;;;10.55;5.05;;;;;;;;;;6276199;22;20907;-84
2023/01/17 11:47:07;;;;;;;12.05;5.00;;;;;;;;;;6303004;22;20026;-84
2023/01/17 11:49:33;;;;;;;13.60;5.78;;;;;;;;;;6278267;22;20034;-84
2023/01/17 11:52:02;;;;;;;9.45;4.53;;;;;;;;;;6304881;22;20120;-84
2023/01/17 11:54:32;;;;;;;11.27;4.55;;;;;;;;;;6304090;22;20035;-83
2023/01/17 11:56:59;;;;;;;8.52;3.85;;;;;;;;;;6304094;22;20024;-84
2023/01/17 11:59:25;;;;;;;10.10;4.03;;;;;;;;;;6303698;22;20499;-84
2023/01/17 12:02:11;;;;;;;9.80;4.30;;;;;;;;;;6277236;22;20032;-83
2023/01/17 12:04:46;;;;;;;6.97;4.10;;;;;;;;;;6277514;22;20024;-83
2023/01/17 12:07:25;;;;;;;9.82;4.00;;;;;;;;;;6303621;22;20033;-83
2023/01/17 12:09:54;;;;;;;8.27;3.65;;;;;;;;;;6277612;22;20027;-84
2023/01/17 12:15:36;;;;;;;9.73;3.30;;;;;;;;;;6303935;22;20032;-84
2023/01/17 12:18:07;;;;;;;11.23;3.90;;;;;;;;;;6303963;22;20050;-83
2023/01/17 12:20:34;;;;;;;;;;;;;;;;;;6278273;22;20027;-83
2023/01/17 12:23:18;;;;;;;7.63;3.22;;;;;;;;;;6303642;22;46997;-83
2023/01/17 12:26:01;;;;;;;12.40;3.35;;;;;;;;;;6276838;22;20372;-83
2023/01/17 12:28:39;;;;;;;7.47;3.05;;;;;;;;;;6275731;22;20019;-83
2023/01/17 12:31:12;;;;;;;10.25;3.45;;;;;;;;;;6305043;22;20054;-83
2023/01/17 12:33:50;;;;;;;9.77;2.70;;;;;;;;;;6305426;22;20069;-83
2023/01/17 12:36:36;;;;;;;6.88;2.42;;;;;;;;;;6305060;22;20400;-83
2023/01/17 12:39:05;;;;;;;6.72;1.88;;;;;;;;;;6305602;22;20115;-83
2023/01/17 12:41:34;;;;;;;5.75;2.22;;;;;;;;;;6305192;22;20020;-83
2023/01/17 12:44:01;;;;;;;6.20;2.47;;;;;;;;;;6305610;22;20102;-83
2023/01/17 12:46:27;;;;;;;5.57;2.25;;;;;;;;;;6304668;22;20472;-83
2023/01/17 12:48:56;;;;;;;6.78;2.15;;;;;;;;;;6305914;22;20027;-83
2023/01/17 12:51:36;;;;;;;5.43;2.22;;;;;;;;;;6305116;22;20091;-83
2023/01/17 12:54:08;;;;;;;7.80;2.13;;;;;;;;;;6305758;22;20023;-83
2023/01/17 12:56:34;;;;;;;5.57;2.03;;;;;;;;;;6305293;22;20807;-83
2023/01/17 12:59:19;;;;;;;4.95;1.90;;;;;;;;;;6305935;22;20330;-83
2023/01/17 13:01:56;;;;;;;4.53;2.00;;;;;;;;;;6278716;22;20023;-83
2023/01/17 13:04:28;;;;;;;6.93;1.90;;;;;;;;;;6304647;22;20055;-83
2023/01/17 13:06:58;;;;;;;4.60;1.83;;;;;;;;;;6304903;22;20020;-83
2023/01/17 13:09:28;;;;;;;6.38;1.85;;;;;;;;;;6304891;22;20027;-83
2023/01/17 13:12:03;;;;;;;4.38;1.90;;;;;;;;;;6277799;22;20027;-83
2023/01/17 13:14:29;;;;;;;6.20;1.67;;;;;;;;;;6305287;22;20028;-83
2023/01/17 13:16:58;;;;;;;5.63;2.00;;;;;;;;;;6278101;22;20070;-83
2023/01/17 13:19:43;;;;;;;5.55;1.75;;;;;;;;;;6273641;22;20032;-80
2023/01/17 13:22:16;;;;;;;4.75;1.83;;;;;;;;;;6303907;22;20681;-79
2023/01/17 13:24:54;;;;;;;7.30;2.05;;;;;;;;;;6304843;22;20038;-80
2023/01/17 13:27:41;;;;;;;5.53;1.58;;;;;;;;;;6277124;22;20055;-83
2023/01/17 13:30:07;;;;;;;4.63;1.77;;;;;;;;;;6303748;22;20020;-84
2023/01/17 13:32:40;;;;;;;4.82;1.70;;;;;;;;;;6305084;22;20024;-81
2023/01/17 13:35:13;;;;;;;5.80;1.48;;;;;;;;;;6276137;22;20055;-84
2023/01/17 13:38:01;;;;;;;5.22;1.80;;;;;;;;;;6300944;22;20023;-84
2023/01/17 13:40:35;;;;;;;5.35;1.77;;;;;;;;;;6302240;22;20481;-84
2023/01/17 13:43:04;;;;;;;5.15;1.83;;;;;;;;;;6303038;22;20024;-84
2023/01/17 13:45:34;;;;;;;8.88;2.60;;;;;;;;;;6303509;22;20139;-84
2023/01/17 13:48:13;;;;;;;6.55;2.20;;;;;;;;;;6302345;22;20493;-84
2023/01/17 13:50:39;;;;;;;4.53;1.60;;;;;;;;;;6274553;22;20026;-83
2023/01/17 13:53:25;;;;;;;4.50;1.77;;;;;;;;;;6303306;22;20495;-84
2023/01/17 13:55:57;;;;;;;6.55;1.80;;;;;;;;;;6302322;22;20063;-84
2023/01/17 13:58:28;;;;;;;5.47;1.88;;;;;;;;;;6302496;22;20619;-84
2023/01/17 14:00:54;;;;;;;5.45;1.85;;;;;;;;;;6274614;22;20072;-83
2023/01/17 14:03:39;;;;;;;7.47;1.50;;;;;;;;;;6302516;22;20065;-84
2023/01/17 14:06:26;;;;;;;4.20;1.52;;;;;;;;;;6301825;22;20019;-84
2023/01/17 14:08:52;;;;;;;6.40;1.80;;;;;;;;;;6303185;22;20536;-84
2023/01/17 14:11:19;;;;;;;5.40;1.85;;;;;;;;;;6302285;22;20054;-84
2023/01/17 14:13:45;;;;;;;4.80;2.08;;;;;;;;;;6302777;22;20070;-84
2023/01/17 14:16:20;;;;;;;5.72;1.30;;;;;;;;;;6305283;22;20028;-84
2023/01/17 14:18:47;;;;;;;5.72;1.48;;;;;;;;;;6277329;22;20028;-84
2023/01/17 14:21:32;;;;;;;4.40;1.50;;;;;;;;;;6304345;22;20034;-84
2023/01/17 14:24:02;;;;;;;5.35;1.40;;;;;;;;;;6276913;22;20024;-84
2023/01/17 14:26:31;;;;;;;5.25;1.75;;;;;;;;;;6304891;22;20026;-84
2023/01/17 14:29:17;;;;;;;5.93;1.80;;;;;;;;;;6302909;22;20051;-84
2023/01/17 14:31:44;;;;;;;6.93;1.40;;;;;;;;;;6304073;22;20105;-84
2023/01/17 14:34:20;;;;;;;4.57;1.40;;;;;;;;;;6304730;22;20052;-85
2023/01/17 14:36:47;;;;;;;4.20;1.50;;;;;;;;;;6304025;22;20024;-84
2023/01/17 14:39:22;;;;;;;6.30;1.85;;;;;;;;;;6304680;22;20043;-85
2023/01/17 14:41:49;;;;;;;6.95;1.50;;;;;;;;;;6276727;22;20090;-84
2023/01/17 14:44:15;;;;;;;7.90;1.45;;;;;;;;;;6303110;22;20742;-84
2023/01/17 14:46:45;;;;;;;3.88;1.30;;;;;;;;;;6304180;22;20031;-85
2023/01/17 14:49:24;;;;;;;4.35;2.00;;;;;;;;;;6276375;22;20032;-85
2023/01/17 14:52:00;;;;;;;3.53;1.40;;;;;;;;;;6276856;22;20023;-85
2023/01/17 14:54:28;;;;;;;4.53;1.88;;;;;;;;;;6276638;22;20031;-85
2023/01/17 14:57:20;;;;;;;4.05;1.40;;;;;;;;;;6304031;22;20745;-85
2023/01/17 14:59:46;;;;;;;5.68;1.42;;;;;;;;;;6305353;22;20023;-85
2023/01/17 15:02:14;;;;;;;4.93;1.30;;;;;;;;;;6277680;22;20559;-85
2023/01/17 15:04:41;;;;;;;6.20;1.67;;;;;;;;;;6305305;22;20069;-85
2023/01/17 15:07:13;;;;;;;6.45;1.63;;;;;;;;;;6303431;22;20562;-85
2023/01/17 15:09:40;;;;;;;5.93;1.80;;;;;;;;;;6306477;22;20099;-85
2023/01/17 15:12:09;;;;;;;8.43;2.05;;;;;;;;;;6278240;22;20024;-85
2023/01/17 15:14:38;;;;;;;6.03;3.13;;;;;;;;;;6305280;22;20077;-84
2023/01/17 15:17:23;;;;;;;4.75;2.03;;;;;;;;;;6304629;22;20103;-85
2023/01/17 15:19:52;;;;;;;3.78;1.90;;;;;;;;;;6306024;22;20562;-85
2023/01/17 15:22:19;;;;;;;8.82;4.57;;;;;;;;;;6305378;22;20941;-85
2023/01/17 15:24:46;;;;;;;7.50;2.75;;;;;;;;;;6278150;22;20077;-86
2023/01/17 15:27:13;;;;;;;4.95;1.83;;;;;;;;;;6277137;22;20024;-85
2023/01/17 15:29:40;;;;;;;5.60;2.17;;;;;;;;;;6277736;22;20024;-85
2023/01/17 15:32:15;;;;;;;7.30;1.98;;;;;;;;;;6304659;22;20469;-85
2023/01/17 15:34:43;;;;;;;5.88;2.50;;;;;;;;;;6277127;22;20099;-85
2023/01/17 15:37:28;;;;;;;5.88;2.55;;;;;;;;;;6304878;22;20032;-85
2023/01/17 15:40:03;;;;;;;7.45;2.20;;;;;;;;;;6306919;22;20059;-86
2023/01/17 15:42:30;;;;;;;7.60;2.40;;;;;;;;;;6304947;22;20035;-86
2023/01/17 15:45:00;;;;;;;6.35;1.77;;;;;;;;;;6304989;22;20840;-86
2023/01/17 15:47:31;;;;;;;6.68;2.22;;;;;;;;;;6278593;22;20023;-86
2023/01/17 15:49:59;;;;;;;7.60;1.98;;;;;;;;;;6307896;22;20040;-86
2023/01/17 15:52:25;;;;;;;8.95;1.95;;;;;;;;;;6307483;22;20023;-85
2023/01/17 15:55:09;;;;;;;5.80;2.15;;;;;;;;;;6305577;22;20074;-85
2023/01/17 15:57:39;;;;;;;4.63;1.63;;;;;;;;;;6277503;22;20031;-86
2023/01/17 16:10:35;;;;;;;5.32;1.70;;;;;;;;;;6305808;22;20098;-85
2023/01/17 16:13:02;;;;;;;4.07;1.88;;;;;;;;;;6302168;22;20460;-85
2023/01/17 16:15:29;;;;;;;4.75;1.85;;;;;;;;;;6303061;22;20024;-85
2023/01/17 16:21:30;;;;;;;6.07;1.70;;;;;;;;;;6299979;22;20027;-85
2023/01/17 16:23:57;;;;;;;9.57;2.25;;;;;;;;;;6305484;22;20032;-85
2023/01/17 16:26:28;;;;;;;5.00;1.95;;;;;;;;;;6277537;22;20491;-85
2023/01/17 16:28:55;;;;;;;5.13;1.92;;;;;;;;;;6278763;22;20472;-85
2023/01/17 16:31:38;;;;;;;4.88;1.88;;;;;;;;;;6303835;22;20027;-85
2023/01/17 16:37:33;;;;;;;4.68;1.80;;;;;;;;;;6306801;22;20020;-86